createdAt,value
2022-11-24T00:01:06.397Z,6.90
2022-11-24T00:03:33.471Z,7.50
2022-11-24T00:06:11.217Z,6.00
2022-11-24T00:08:39.937Z,7.10
2022-11-24T00:11:11.781Z,6.82
2022-11-24T00:13:39.361Z,6.30
2022-11-24T00:16:17.082Z,8.00
2022-11-24T00:18:46.055Z,6.80
2022-11-24T00:21:13.112Z,7.32
2022-11-24T00:23:39.741Z,8.30
2022-11-24T00:26:15.140Z,7.53
2022-11-24T00:28:42.781Z,5.93
2022-11-24T00:31:27.079Z,7.95
2022-11-24T00:33:56.379Z,7.65
2022-11-24T00:36:24.805Z,8.38
2022-11-24T00:38:55.771Z,7.57
2022-11-24T00:41:23.470Z,7.23
2022-11-24T00:43:50.183Z,7.68
2022-11-24T00:46:17.015Z,7.88
2022-11-24T00:48:43.799Z,6.95
2022-11-24T00:51:12.560Z,7.63
2022-11-24T00:53:39.112Z,7.40
2022-11-24T00:56:05.802Z,8.13
2022-11-24T00:58:33.050Z,7.22
2022-11-24T01:01:15.537Z,6.72
2022-11-24T01:03:43.298Z,7.25
2022-11-24T01:06:13.013Z,6.80
2022-11-24T01:08:40.285Z,6.85
2022-11-24T01:11:19.065Z,9.20
2022-11-24T01:13:49.149Z,7.63
2022-11-24T01:16:21.931Z,7.28
2022-11-24T01:18:48.891Z,6.67
2022-11-24T01:21:16.250Z,6.95
2022-11-24T01:23:42.841Z,7.22
2022-11-24T01:26:12.528Z,6.57
2022-11-24T01:28:44.856Z,7.55
2022-11-24T01:31:13.919Z,5.73
2022-11-24T01:33:40.435Z,7.03
2022-11-24T01:36:06.968Z,7.50
2022-11-24T01:38:33.629Z,6.80
2022-11-24T01:41:12.527Z,7.32
2022-11-24T01:43:39.529Z,6.80
2022-11-24T01:46:17.679Z,7.53
2022-11-24T01:48:49.048Z,8.15
2022-11-24T01:51:27.740Z,6.03
2022-11-24T01:54:00.922Z,6.43
2022-11-24T01:56:30.292Z,5.80
2022-11-24T01:59:00.321Z,6.85
2022-11-24T02:01:27.765Z,6.40
2022-11-24T02:03:54.732Z,6.40
2022-11-24T02:06:29.051Z,6.97
2022-11-24T02:09:13.589Z,5.93
2022-11-24T02:11:41.687Z,6.15
2022-11-24T02:14:11.498Z,6.10
2022-11-24T02:16:41.568Z,6.28
2022-11-24T02:19:22.729Z,6.85
2022-11-24T02:21:49.165Z,6.13
2022-11-24T02:24:25.398Z,6.22
2022-11-24T02:26:54.451Z,6.32
2022-11-24T02:29:21.101Z,6.43
2022-11-24T02:31:55.141Z,6.55
2022-11-24T02:34:21.559Z,5.97
2022-11-24T02:36:48.005Z,6.70
2022-11-24T02:39:15.349Z,5.85
2022-11-24T02:41:46.637Z,5.88
2022-11-24T02:44:15.483Z,6.63
2022-11-24T02:46:42.112Z,6.60
2022-11-24T02:49:08.602Z,6.43
2022-11-24T02:51:35.056Z,5.45
2022-11-24T02:54:01.556Z,5.88
2022-11-24T02:56:27.983Z,5.78
2022-11-24T02:58:54.485Z,6.97
2022-11-24T03:01:20.998Z,5.78
2022-11-24T03:03:47.525Z,7.25
2022-11-24T03:06:13.982Z,6.72
2022-11-24T03:08:40.401Z,6.20
2022-11-24T03:11:06.805Z,6.53
2022-11-24T03:13:33.502Z,6.38
2022-11-24T03:15:59.988Z,7.13
2022-11-24T03:18:26.481Z,6.25
2022-11-24T03:20:52.871Z,5.93
2022-11-24T03:23:19.324Z,5.20
2022-11-24T03:25:45.729Z,6.68
2022-11-24T03:28:12.142Z,6.95
2022-11-24T03:30:38.551Z,6.35
2022-11-24T03:33:07.147Z,6.65
2022-11-24T03:35:33.601Z,6.40
2022-11-24T03:38:00.081Z,6.03
2022-11-24T03:40:26.523Z,6.43
2022-11-24T03:42:52.955Z,6.13
2022-11-24T03:48:07.536Z,6.40
2022-11-24T03:50:33.928Z,6.10
2022-11-24T03:53:00.350Z,6.97
2022-11-24T03:55:26.778Z,5.40
2022-11-24T03:57:53.303Z,6.63
2022-11-24T04:00:19.852Z,7.00
2022-11-24T04:02:48.128Z,6.57
2022-11-24T04:05:15.007Z,7.88
2022-11-24T04:07:41.929Z,6.35
2022-11-24T04:10:08.952Z,6.50
2022-11-24T04:12:44.277Z,5.90
2022-11-24T04:15:20.902Z,5.80
2022-11-24T04:17:49.544Z,6.57
2022-11-24T04:20:17.323Z,5.57
2022-11-24T04:22:44.032Z,7.10
2022-11-24T04:25:10.726Z,8.20
2022-11-24T04:27:37.890Z,6.22
2022-11-24T04:30:07.152Z,8.43
2022-11-24T04:32:33.535Z,5.80
2022-11-24T04:34:59.984Z,7.70
2022-11-24T04:37:26.498Z,6.57
2022-11-24T04:39:54.929Z,6.80
2022-11-24T04:42:21.581Z,7.18
2022-11-24T04:44:48.035Z,6.88
2022-11-24T04:47:20.339Z,7.82
2022-11-24T04:49:48.058Z,6.23
2022-11-24T04:52:14.991Z,7.88
2022-11-24T04:54:41.496Z,6.15
2022-11-24T04:57:09.401Z,6.43
2022-11-24T04:59:35.808Z,6.03
2022-11-24T05:02:02.217Z,7.23
2022-11-24T05:04:28.738Z,7.60
2022-11-24T05:06:55.164Z,6.25
2022-11-24T05:09:21.908Z,7.28
2022-11-24T05:11:48.387Z,8.40
2022-11-24T05:14:14.836Z,7.23
2022-11-24T05:16:41.314Z,7.15
2022-11-24T05:19:08.416Z,6.65
2022-11-24T05:21:34.916Z,7.22
2022-11-24T05:24:01.405Z,5.70
2022-11-24T05:26:27.831Z,5.63
2022-11-24T05:28:54.304Z,5.70
2022-11-24T05:31:20.867Z,5.45
2022-11-24T05:33:47.452Z,6.47
2022-11-24T05:36:33.432Z,5.85
2022-11-24T05:39:00.405Z,4.73
2022-11-24T05:41:26.921Z,5.88
2022-11-24T05:43:53.376Z,6.07
2022-11-24T05:46:19.896Z,5.93
2022-11-24T05:48:46.374Z,6.25
2022-11-24T05:51:12.866Z,5.80
2022-11-24T05:53:39.281Z,5.93
2022-11-24T05:56:06.115Z,5.72
2022-11-24T05:58:32.524Z,5.40
2022-11-24T06:00:58.955Z,6.15
2022-11-24T06:03:25.355Z,5.30
2022-11-24T06:05:51.800Z,5.15
2022-11-24T06:08:18.237Z,5.10
2022-11-24T06:10:44.681Z,5.03
2022-11-24T06:13:11.143Z,4.78
2022-11-24T06:15:38.584Z,5.50
2022-11-24T06:18:05.124Z,5.43
2022-11-24T06:20:33.048Z,6.35
2022-11-24T06:23:00.663Z,5.72
2022-11-24T06:25:28.312Z,6.35
2022-11-24T06:27:55.021Z,5.37
2022-11-24T06:30:21.481Z,6.13
2022-11-24T06:32:49.903Z,6.82
2022-11-24T06:35:16.708Z,7.40
2022-11-24T06:37:43.168Z,8.23
2022-11-24T06:40:10.139Z,7.50
2022-11-24T06:42:37.261Z,6.35
2022-11-24T06:45:08.719Z,8.02
2022-11-24T06:47:36.024Z,7.72
2022-11-24T06:50:02.735Z,7.18
2022-11-24T06:52:29.275Z,7.20
2022-11-24T06:54:55.939Z,7.78
2022-11-24T06:57:22.359Z,9.70
2022-11-24T06:59:48.969Z,8.40
2022-11-24T07:02:15.445Z,9.18
2022-11-24T07:04:41.951Z,9.57
2022-11-24T07:07:08.733Z,10.07
2022-11-24T07:09:35.224Z,10.07
2022-11-24T07:12:02.331Z,9.25
2022-11-24T07:14:28.860Z,7.88
2022-11-24T07:16:55.385Z,9.70
2022-11-24T07:19:25.068Z,9.15
2022-11-24T07:21:51.828Z,9.65
2022-11-24T07:24:18.752Z,9.68
2022-11-24T07:26:45.328Z,9.63
2022-11-24T07:29:11.808Z,10.10
2022-11-24T07:31:38.339Z,9.25
2022-11-24T07:34:05.096Z,10.18
2022-11-24T07:36:31.597Z,9.80
2022-11-24T07:38:58.148Z,9.45
2022-11-24T07:41:24.609Z,10.60
2022-11-24T07:43:51.714Z,9.95
2022-11-24T07:46:19.540Z,10.02
2022-11-24T07:48:46.344Z,9.57
2022-11-24T07:51:12.956Z,9.23
2022-11-24T07:53:39.720Z,8.80
2022-11-24T07:56:06.807Z,9.82
2022-11-24T07:58:36.556Z,10.73
2022-11-24T08:01:17.783Z,9.63
2022-11-24T08:03:45.686Z,8.75
2022-11-24T08:06:25.136Z,9.63
2022-11-24T08:08:54.557Z,8.80
2022-11-24T08:11:21.126Z,8.75
2022-11-24T08:13:47.651Z,8.85
2022-11-24T08:16:17.481Z,9.68
2022-11-24T08:18:48.772Z,8.60
2022-11-24T08:21:15.292Z,8.52
2022-11-24T08:23:42.392Z,8.48
2022-11-24T08:26:13.786Z,8.13
2022-11-24T08:28:40.475Z,8.88
2022-11-24T08:31:12.556Z,7.13
2022-11-24T08:33:39.837Z,8.32
2022-11-24T08:36:14.027Z,8.35
2022-11-24T08:38:41.446Z,8.18
2022-11-24T08:41:14.128Z,8.55
2022-11-24T08:43:41.334Z,8.20
2022-11-24T08:46:13.815Z,8.55
2022-11-24T08:48:41.439Z,8.40
2022-11-24T08:51:13.298Z,8.20
2022-11-24T08:53:41.043Z,8.25
2022-11-24T08:56:09.529Z,8.27
2022-11-24T08:58:36.851Z,6.88
2022-11-24T09:01:15.422Z,7.63
2022-11-24T09:03:48.610Z,7.97
2022-11-24T09:06:23.466Z,7.70
2022-11-24T09:08:50.723Z,7.27
2022-11-24T09:11:17.415Z,7.70
2022-11-24T09:13:44.613Z,7.55
2022-11-24T09:16:14.602Z,8.32
2022-11-24T09:18:41.831Z,7.20
2022-11-24T09:21:20.555Z,7.27
2022-11-24T09:23:49.188Z,7.68
2022-11-24T09:26:27.895Z,7.90
2022-11-24T09:28:57.908Z,7.20
2022-11-24T09:31:27.344Z,7.90
2022-11-24T09:33:55.088Z,7.43
2022-11-24T09:36:22.489Z,6.90
2022-11-24T09:38:49.340Z,6.57
2022-11-24T09:41:39.360Z,6.82
2022-11-24T09:44:25.576Z,6.65
2022-11-24T09:47:15.305Z,6.37
2022-11-24T09:49:51.786Z,6.40
2022-11-24T09:52:37.500Z,7.07
2022-11-24T09:55:13.147Z,6.50
2022-11-24T09:57:43.868Z,6.50
2022-11-24T10:00:13.307Z,5.43
2022-11-24T10:02:39.937Z,5.03
2022-11-24T10:05:07.060Z,5.82
2022-11-24T10:07:40.080Z,6.10
2022-11-24T10:10:25.021Z,6.40
2022-11-24T10:13:00.777Z,5.70
2022-11-24T10:16:01.411Z,5.85
2022-11-24T10:18:46.292Z,6.57
2022-11-24T10:21:51.544Z,4.88
2022-11-24T10:24:35.751Z,7.00
2022-11-24T10:27:26.436Z,6.13
2022-11-24T10:29:52.993Z,7.30
2022-11-24T10:32:25.593Z,6.50
2022-11-24T10:34:54.127Z,7.38
2022-11-24T10:37:30.668Z,6.53
2022-11-24T10:40:04.035Z,6.50
2022-11-24T10:42:37.977Z,6.72
2022-11-24T10:45:15.151Z,6.65
2022-11-24T10:47:43.030Z,6.53
2022-11-24T10:50:26.241Z,6.78
2022-11-24T10:53:16.213Z,6.40
2022-11-24T10:55:55.052Z,7.88
2022-11-24T10:58:38.614Z,5.53
2022-11-24T11:01:14.234Z,6.55
2022-11-24T11:03:49.652Z,8.75
2022-11-24T11:06:23.028Z,6.03
2022-11-24T11:08:49.884Z,8.07
2022-11-24T11:11:19.674Z,6.63
2022-11-24T11:13:58.161Z,7.03
2022-11-24T11:16:39.104Z,13.23
2022-11-24T11:19:58.511Z,7.60
2022-11-24T11:22:32.883Z,6.40
2022-11-24T11:25:32.056Z,6.25
2022-11-24T11:28:18.581Z,6.35
2022-11-24T11:34:04.659Z,6.73
2022-11-24T11:36:33.111Z,6.82
2022-11-24T11:38:59.816Z,5.95
2022-11-24T11:41:32.336Z,5.72
2022-11-24T11:44:13.563Z,6.88
2022-11-24T11:46:40.179Z,7.17
2022-11-24T11:49:12.125Z,5.50
2022-11-24T11:51:44.386Z,6.00
2022-11-24T11:54:26.920Z,6.72
2022-11-24T11:57:03.370Z,6.68
2022-11-24T11:59:49.044Z,6.17
2022-11-24T12:02:39.850Z,5.85
2022-11-24T12:05:24.911Z,6.18
2022-11-24T12:08:10.897Z,6.10
2022-11-24T12:11:10.692Z,6.00
2022-11-24T12:13:51.438Z,6.77
2022-11-24T12:16:42.596Z,6.40
2022-11-24T12:19:24.206Z,6.53
2022-11-24T12:21:59.836Z,6.68
2022-11-24T12:24:55.416Z,6.85
2022-11-24T12:27:39.741Z,6.17
2022-11-24T12:30:15.015Z,5.90
2022-11-24T12:33:00.252Z,7.00
2022-11-24T12:35:44.180Z,6.40
2022-11-24T12:38:25.782Z,5.95
2022-11-24T12:41:25.519Z,4.53
2022-11-24T12:43:52.939Z,6.25
2022-11-24T12:46:19.417Z,6.32
2022-11-24T12:49:01.130Z,5.90
2022-11-24T12:51:32.876Z,5.85
2022-11-24T12:54:03.305Z,5.90
2022-11-24T12:56:57.710Z,6.55
2022-11-24T12:59:45.580Z,6.45
2022-11-24T13:02:18.029Z,6.78
2022-11-24T13:04:55.676Z,5.68
2022-11-24T13:07:37.995Z,5.20
2022-11-24T13:10:40.113Z,5.72
2022-11-24T13:13:11.936Z,6.00
2022-11-24T13:19:09.551Z,5.30
2022-11-24T13:21:50.803Z,5.33
2022-11-24T13:24:18.133Z,4.40
2022-11-24T13:26:50.946Z,6.68
2022-11-24T13:29:33.189Z,4.82
2022-11-24T13:32:02.672Z,5.07
2022-11-24T13:34:41.218Z,5.47
2022-11-24T13:37:29.095Z,5.30
2022-11-24T13:40:07.886Z,5.90
2022-11-24T13:43:03.200Z,5.05
2022-11-24T13:45:35.700Z,4.88
2022-11-24T13:48:02.146Z,4.37
2022-11-24T13:50:50.445Z,5.50
2022-11-24T13:53:17.057Z,5.10
2022-11-24T13:55:55.813Z,4.97
2022-11-24T13:58:29.696Z,4.80
2022-11-24T14:01:25.622Z,4.93
2022-11-24T14:04:28.791Z,4.53
2022-11-24T14:06:52.256Z,5.07
2022-11-24T14:09:33.000Z,4.07
2022-11-24T14:12:02.523Z,5.72
2022-11-24T14:14:29.114Z,4.43
2022-11-24T14:17:28.494Z,5.22
2022-11-24T14:19:57.148Z,4.72
2022-11-24T14:22:36.635Z,4.85
2022-11-24T14:25:03.864Z,4.50
2022-11-24T14:27:38.582Z,4.30
2022-11-24T14:30:08.062Z,4.35
2022-11-24T14:32:34.601Z,4.10
2022-11-24T14:35:01.277Z,4.28
2022-11-24T14:37:27.820Z,3.88
2022-11-24T14:39:54.349Z,3.80
2022-11-24T14:42:24.017Z,4.57
2022-11-24T14:44:58.712Z,3.85
2022-11-24T14:47:36.256Z,4.20
2022-11-24T14:50:10.832Z,4.22
2022-11-24T14:52:45.674Z,4.87
2022-11-24T14:55:30.763Z,5.70
2022-11-24T14:57:58.342Z,5.68
2022-11-24T15:00:24.760Z,4.70
2022-11-24T15:03:07.770Z,4.80
2022-11-24T15:05:58.537Z,4.50
2022-11-24T15:08:28.635Z,4.60
2022-11-24T15:11:03.135Z,5.28
2022-11-24T15:13:37.045Z,5.47
2022-11-24T15:16:15.872Z,5.82
2022-11-24T15:18:55.032Z,6.60
2022-11-24T15:21:32.888Z,7.95
2022-11-24T15:24:19.115Z,15.85
2022-11-24T15:26:46.249Z,13.88
2022-11-24T15:29:13.516Z,17.05
2022-11-24T15:31:42.697Z,10.47
2022-11-24T15:34:14.174Z,9.18
2022-11-24T15:36:40.655Z,9.07
2022-11-24T15:39:07.190Z,7.53
2022-11-24T15:41:33.763Z,7.95
2022-11-24T15:44:00.288Z,7.00
2022-11-24T15:46:37.823Z,7.25
2022-11-24T15:49:05.188Z,8.85
2022-11-24T15:51:31.716Z,6.93
2022-11-24T15:54:01.075Z,7.05
2022-11-24T15:56:33.857Z,8.00
2022-11-24T15:59:01.217Z,7.70
2022-11-24T16:01:31.494Z,7.60
2022-11-24T16:03:58.180Z,6.60
2022-11-24T16:06:25.567Z,7.15
2022-11-24T16:08:55.612Z,7.60
2022-11-24T16:11:22.967Z,6.55
2022-11-24T16:13:52.979Z,6.95
2022-11-24T16:16:20.970Z,6.60
2022-11-24T16:18:47.510Z,7.90
2022-11-24T16:21:13.970Z,6.97
2022-11-24T16:23:40.500Z,7.72
2022-11-24T16:26:07.297Z,7.97
2022-11-24T16:28:33.791Z,7.80
2022-11-24T16:31:00.345Z,6.40
2022-11-24T16:33:29.109Z,5.97
2022-11-24T16:35:55.627Z,5.82
2022-11-24T16:38:22.113Z,6.95
2022-11-24T16:40:53.350Z,6.32
2022-11-24T16:43:20.197Z,7.25
2022-11-24T16:45:46.808Z,5.77
2022-11-24T16:48:13.339Z,6.95
2022-11-24T16:50:39.819Z,7.43
2022-11-24T16:53:06.307Z,7.90
2022-11-24T16:55:32.787Z,7.60
2022-11-24T16:57:59.191Z,9.17
2022-11-24T17:00:25.634Z,9.27
2022-11-24T17:02:52.131Z,10.48
2022-11-24T17:05:18.575Z,8.63
2022-11-24T17:07:45.062Z,8.23
2022-11-24T17:10:11.540Z,6.63
2022-11-24T17:12:38.073Z,7.03
2022-11-24T17:18:22.483Z,6.93
2022-11-24T17:20:38.689Z,7.35
2022-11-24T17:23:05.131Z,6.33
2022-11-24T17:25:32.815Z,7.30
2022-11-24T17:27:59.287Z,6.30
2022-11-24T17:30:25.703Z,7.22
2022-11-24T17:32:56.587Z,6.55
2022-11-24T17:35:23.690Z,6.67
2022-11-24T17:37:50.119Z,6.32
2022-11-24T17:40:34.290Z,7.22
2022-11-24T17:43:00.977Z,6.53
2022-11-24T17:45:28.904Z,7.53
2022-11-24T17:47:56.213Z,6.20
2022-11-24T17:50:25.936Z,6.88
2022-11-24T17:52:53.767Z,6.65
2022-11-24T17:55:20.311Z,6.28
2022-11-24T17:57:46.757Z,6.80
2022-11-24T18:00:13.870Z,5.40
2022-11-24T18:02:40.428Z,5.05
2022-11-24T18:05:07.197Z,6.60
2022-11-24T18:07:35.924Z,6.60
2022-11-24T18:10:02.373Z,7.35
2022-11-24T18:12:28.802Z,5.80
2022-11-24T18:14:55.300Z,6.35
2022-11-24T18:17:21.775Z,7.05
2022-11-24T18:19:48.172Z,7.07
2022-11-24T18:22:14.634Z,6.50
2022-11-24T18:24:41.211Z,6.47
2022-11-24T18:27:07.977Z,6.43
2022-11-24T18:29:34.460Z,6.15
2022-11-24T18:32:01.201Z,6.45
2022-11-24T18:34:27.635Z,7.03
2022-11-24T18:36:54.233Z,6.33
2022-11-24T18:39:20.910Z,6.32
2022-11-24T18:41:47.580Z,5.38
2022-11-24T18:44:14.117Z,6.25
2022-11-24T18:46:40.683Z,6.40
2022-11-24T18:49:07.587Z,6.23
2022-11-24T18:51:34.354Z,6.03
2022-11-24T18:54:02.906Z,6.80
2022-11-24T18:56:29.657Z,7.03
2022-11-24T18:58:56.805Z,6.93
2022-11-24T19:01:26.962Z,6.93
2022-11-24T19:03:55.932Z,6.35
2022-11-24T19:06:28.863Z,6.55
2022-11-24T19:08:55.849Z,7.00
2022-11-24T19:11:28.413Z,9.02
2022-11-24T19:13:56.477Z,5.57
2022-11-24T19:16:23.830Z,6.65
2022-11-24T19:18:54.047Z,6.35
2022-11-24T19:21:21.840Z,5.97
2022-11-24T19:23:49.185Z,7.25
2022-11-24T19:26:15.796Z,6.50
2022-11-24T19:28:42.273Z,6.50
2022-11-24T19:31:11.697Z,7.25
2022-11-24T19:33:39.378Z,7.13
2022-11-24T19:36:09.036Z,6.65
2022-11-24T19:38:35.575Z,7.13
2022-11-24T19:41:06.976Z,7.00
2022-11-24T19:43:34.104Z,6.72
2022-11-24T19:46:07.365Z,6.40
2022-11-24T19:48:36.448Z,6.97
2022-11-24T19:51:05.168Z,6.53
2022-11-24T19:53:32.724Z,5.88
2022-11-24T19:56:14.441Z,7.57
2022-11-24T19:58:41.356Z,6.97
2022-11-24T20:01:24.842Z,6.15
2022-11-24T20:03:58.907Z,6.40
2022-11-24T20:06:33.132Z,7.25
2022-11-24T20:09:00.580Z,7.13
2022-11-24T20:11:28.458Z,5.88
2022-11-24T20:13:55.565Z,5.97
2022-11-24T20:16:28.141Z,5.27
2022-11-24T20:18:56.588Z,7.80
2022-11-24T20:21:25.398Z,8.15
2022-11-24T20:23:55.307Z,7.10
2022-11-24T20:26:23.478Z,7.55
2022-11-24T20:28:51.596Z,6.43
2022-11-24T20:31:21.025Z,6.85
2022-11-24T20:33:47.624Z,6.38
2022-11-24T20:36:17.276Z,6.25
2022-11-24T20:38:45.165Z,7.60
2022-11-24T20:41:17.565Z,7.53
2022-11-24T20:43:45.038Z,6.18
2022-11-24T20:46:21.348Z,7.32
2022-11-24T20:48:47.939Z,6.25
2022-11-24T20:51:21.419Z,7.72
2022-11-24T20:53:48.927Z,7.13
2022-11-24T20:56:19.969Z,7.28
2022-11-24T20:58:46.640Z,7.03
2022-11-24T21:01:19.616Z,6.75
2022-11-24T21:03:47.246Z,6.55
2022-11-24T21:06:14.652Z,6.37
2022-11-24T21:08:42.374Z,6.95
2022-11-24T21:11:11.409Z,6.15
2022-11-24T21:13:39.328Z,7.38
2022-11-24T21:16:18.838Z,6.50
2022-11-24T21:18:47.508Z,5.83
2022-11-24T21:21:14.271Z,6.63
2022-11-24T21:23:40.942Z,6.38
2022-11-24T21:26:14.913Z,6.72
2022-11-24T21:28:44.236Z,7.03
2022-11-24T21:31:13.438Z,6.67
2022-11-24T21:33:41.882Z,6.55
2022-11-24T21:36:09.108Z,6.60
2022-11-24T21:38:35.688Z,6.20
2022-11-24T21:41:13.880Z,6.32
2022-11-24T21:43:40.424Z,6.93
2022-11-24T21:46:08.640Z,6.50
2022-11-24T21:48:36.992Z,7.15
2022-11-24T21:51:06.169Z,7.45
2022-11-24T21:53:35.675Z,7.60
2022-11-24T21:56:09.554Z,6.80
2022-11-24T21:58:36.556Z,6.38
2022-11-24T22:01:05.321Z,6.32
2022-11-24T22:03:32.166Z,6.65
2022-11-24T22:06:00.291Z,6.75
2022-11-24T22:08:28.710Z,6.03
2022-11-24T22:11:12.498Z,6.97
2022-11-24T22:13:39.856Z,7.57
2022-11-24T22:16:11.790Z,5.97
2022-11-24T22:18:40.617Z,6.45
2022-11-24T22:21:10.511Z,7.13
2022-11-24T22:23:37.267Z,6.97
2022-11-24T22:26:03.789Z,7.25
2022-11-24T22:28:35.206Z,7.32
2022-11-24T22:31:06.869Z,6.90
2022-11-24T22:33:33.755Z,7.07
2022-11-24T22:36:01.002Z,6.70
2022-11-24T22:38:28.507Z,6.80
2022-11-24T22:40:55.058Z,7.13
2022-11-24T22:43:23.058Z,6.65
2022-11-24T22:45:49.813Z,5.67
2022-11-24T22:48:16.374Z,7.13
2022-11-24T22:50:42.824Z,7.00
2022-11-24T22:53:09.306Z,6.85
2022-11-24T22:55:35.843Z,6.78
2022-11-24T22:58:02.348Z,6.40
2022-11-24T23:00:28.823Z,6.40
2022-11-24T23:02:55.362Z,6.53
2022-11-24T23:05:21.833Z,5.63
2022-11-24T23:07:48.350Z,7.80
2022-11-24T23:10:14.843Z,6.47
2022-11-24T23:12:41.247Z,6.13
2022-11-24T23:15:08.127Z,6.60
2022-11-24T23:17:34.577Z,6.72
2022-11-24T23:20:00.988Z,9.15
2022-11-24T23:22:27.476Z,7.03
2022-11-24T23:24:53.901Z,7.00
2022-11-24T23:27:20.425Z,7.80
2022-11-24T23:29:46.855Z,6.35
2022-11-24T23:32:13.240Z,6.45
2022-11-24T23:34:39.717Z,5.63
2022-11-24T23:37:06.214Z,7.57
2022-11-24T23:39:32.653Z,6.68
2022-11-24T23:41:59.064Z,6.72
2022-11-24T23:44:27.097Z,5.95
2022-11-24T23:46:53.529Z,6.50
2022-11-24T23:49:20.025Z,5.65
2022-11-24T23:51:46.840Z,7.22
2022-11-24T23:54:13.431Z,6.38
2022-11-24T23:56:39.836Z,8.00
2022-11-24T23:59:06.322Z,7.53
